Saigon Express — VRBT7 — position and weather

sailwx.info

Track history (hours):
 
Tides and Currents Weather Stations Pressure Air Temp Water Temp Dewpoint Dewpoint Depression Visibility Wind Speed Wind Dir Waves Ship Positions

Saigon Express

Last reported at 2014-Aug-22 01:33 UTC. Time now 2014-Aug-22 01:59 UTC.
Position N 36°51' W 075°50'.

Length 260 m; draft 11.3 m.

Type: Ship (hazmat cat A). MMSI: 477106800.

Date/timePositionNaut miles runAvg speedWind from/ knotsBaromVisibWave heightAir tempDewpointWater temp
2014-Aug-22 01:33N 36°51' W 075°50'1311.3
2014-Aug-22 00:21N 36°58' W 076°04'1113.0
2014-Aug-21 23:31N 36°60' W 076°18'8 2.6
2014-Aug-21 20:27N 36°53' W 076°21'0 0.0
2014-Aug-21 18:21N 36°53' W 076°21'0 0.0
2014-Aug-21 17:33N 36°53' W 076°21'0 0.0
2014-Aug-21 13:08N 36°53' W 076°21'0 0.0
2014-Aug-21 12:18N 36°53' W 076°21'0 0.0
2014-Aug-21 08:14N 36°53' W 076°21'0 0.0
2014-Aug-21 06:15N 36°53' W 076°21'0 0.0
2014-Aug-21 05:29N 36°53' W 076°21'0 0.0
2014-Aug-21 04:32N 36°53' W 076°21'0 0.0
2014-Aug-21 03:31N 36°53' W 076°21'4 4.6
2014-Aug-21 02:33N 36°57' W 076°20'1110.8
2014-Aug-21 01:33N 36°59' W 076°07'1212.3
2014-Aug-21 00:33N 36°53' W 075°53'10 9.5
2014-Aug-20 23:33N 36°49' W 075°43'1711.7
2014-Aug-20 22:04N 36°52' W 075°21'1212.3
2014-Aug-20 21:06N 36°56' W 075°07'2112.3
2014-Aug-20 19:23N 37°02' W 074°42'4912.2
2014-Aug-20 15:23N 37°46' W 074°16'1517.8
2014-Aug-20 14:33N 38°00' W 074°12'1818.0
2014-Aug-20 13:32N 38°19' W 074°08'1818.2
2014-Aug-20 12:33N 38°36' W 074°02'1818.2
2014-Aug-20 11:33N 38°54' W 073°58'1818.1
2014-Aug-20 10:33N 39°12' W 073°55'1818.2
2014-Aug-20 09:33N 39°30' W 073°54'1818.2
2014-Aug-20 08:33N 39°48' W 073°52'1818.4
2014-Aug-20 07:33N 40°06' W 073°50'1818.4
2014-Aug-20 06:33N 40°25' W 073°49'1312.6
2014-Aug-20 05:33N 40°33' W 074°02'8 7.9
2014-Aug-20 04:33N 40°39' W 074°09'1 1.1
2014-Aug-20 03:33N 40°40' W 074°09'0 0.0
2014-Aug-20 02:33N 40°40' W 074°09'0 0.0
2014-Aug-20 01:33N 40°40' W 074°09'0 0.0
2014-Aug-20 00:33N 40°40' W 074°09'0 0.0
2014-Aug-19 23:33N 40°40' W 074°09'0 0.0
2014-Aug-19 22:33N 40°40' W 074°09'0 0.0
2014-Aug-19 21:33N 40°40' W 074°09'0 0.0
2014-Aug-19 20:33N 40°40' W 074°09'0 0.0
2014-Aug-19 19:33N 40°40' W 074°09'0 0.0
2014-Aug-19 18:33N 40°40' W 074°09'0 0.0
2014-Aug-19 17:33N 40°40' W 074°09'0 0.0
2014-Aug-19 16:33N 40°40' W 074°09'0 0.0
2014-Aug-19 15:33N 40°40' W 074°09'0 0.0
2014-Aug-19 14:33N 40°40' W 074°09'0 0.0
2014-Aug-19 13:33N 40°40' W 074°09'0 0.0
2014-Aug-19 12:33N 40°40' W 074°09'0 0.0
2014-Aug-19 11:33N 40°40' W 074°09'1 0.9
2014-Aug-19 10:33N 40°39' W 074°09'5 5.2
2014-Aug-19 09:33N 40°37' W 074°03'1413.3
2014-Aug-19 08:32N 40°28' W 073°50'3 3.0
2014-Aug-19 07:31N 40°29' W 073°47'0 0.1
2014-Aug-19 06:31N 40°30' W 073°46'0 0.0
2014-Aug-19 05:31N 40°30' W 073°46'0 0.0
2014-Aug-19 04:31N 40°30' W 073°46'2 2.3
2014-Aug-19 03:27N 40°28' W 073°44'910.1
2014-Aug-19 02:33N 40°28' W 073°33'1211.7
2014-Aug-19 01:30N 40°29' W 073°16'1212.5
2014-Aug-19 00:33N 40°30' W 073°01'1312.9
2014-Aug-18 23:33N 40°30' W 072°44'1312.6
2014-Aug-18 22:34N 40°31' W 072°27'1313.2
2014-Aug-18 21:33N 40°31' W 072°10'1313.4
2014-Aug-18 20:34N 40°31' W 071°52'1413.6
2014-Aug-18 19:33N 40°32' W 071°34'1413.9
2014-Aug-18 18:33N 40°32' W 071°16'1414.1
2014-Aug-18 17:33N 40°33' W 070°58'1514.6
2014-Aug-18 16:33N 40°33' W 070°38'2116.8
2014-Aug-18 15:18N 40°33' W 070°11'7 8.5
2014-Aug-18 14:27N 40°33' W 070°01'1617.2
2014-Aug-18 13:32N 40°34' W 069°41'1717.4
2014-Aug-18 12:34N 40°34' W 069°18'1717.2
2014-Aug-18 11:33N 40°34' W 068°55'1817.0
2014-Aug-18 10:29N 40°35' W 068°31'1617.0
2014-Aug-18 09:32N 40°37' W 068°10'1916.9
2014-Aug-18 08:25N 40°40' W 067°46'  
2014-Aug-14 12:24N 41°15' W 030°46'3318.1
2014-Aug-14 10:33N 41°10' W 030°02'1918.3
2014-Aug-14 09:29N 41°04' W 029°38'2418.3
2014-Aug-14 08:10N 40°56' W 029°07'10118.1
2014-Aug-14 02:33N 40°23' W 027°01'1818.0
2014-Aug-14 01:34N 40°17' W 026°39'4518.2
2014-Aug-13 23:06N 40°02' W 025°43'10918.4
2014-Aug-13 17:10N 39°26' W 023°30'3718.5
2014-Aug-13 15:10N 39°15' W 022°44'1218.0
2014-Aug-13 14:30N 39°10' W 022°30'67818.3
2014-Aug-12 01:33N 35°59' W 008°50'  
Track history (hours):
 
Tides and Currents Weather Stations Pressure Air Temp Water Temp Dewpoint Dewpoint Depression Visibility Wind Speed Wind Dir Waves Ship Positions

Saigon Express

Last reported at 2014-Aug-22 01:33 UTC. Time now 2014-Aug-22 01:59 UTC.
Position N 36°51' W 075°50'.

Length 260 m; draft 11.3 m.

Type: Ship (hazmat cat A). MMSI: 477106800.

Date/timePositionNaut miles runAvg speedWind from/ knotsBaromVisibWave heightAir tempDewpointWater temp
2014-Aug-22 01:33N 36°51' W 075°50'1311.3
2014-Aug-22 00:21N 36°58' W 076°04'1113.0
2014-Aug-21 23:31N 36°60' W 076°18'8 2.6
2014-Aug-21 20:27N 36°53' W 076°21'0 0.0
2014-Aug-21 18:21N 36°53' W 076°21'0 0.0
2014-Aug-21 17:33N 36°53' W 076°21'0 0.0
2014-Aug-21 13:08N 36°53' W 076°21'0 0.0
2014-Aug-21 12:18N 36°53' W 076°21'0 0.0
2014-Aug-21 08:14N 36°53' W 076°21'0 0.0
2014-Aug-21 06:15N 36°53' W 076°21'0 0.0
2014-Aug-21 05:29N 36°53' W 076°21'0 0.0
2014-Aug-21 04:32N 36°53' W 076°21'0 0.0
2014-Aug-21 03:31N 36°53' W 076°21'4 4.6
2014-Aug-21 02:33N 36°57' W 076°20'1110.8
2014-Aug-21 01:33N 36°59' W 076°07'1212.3
2014-Aug-21 00:33N 36°53' W 075°53'10 9.5
2014-Aug-20 23:33N 36°49' W 075°43'1711.7
2014-Aug-20 22:04N 36°52' W 075°21'1212.3
2014-Aug-20 21:06N 36°56' W 075°07'2112.3
2014-Aug-20 19:23N 37°02' W 074°42'4912.2
2014-Aug-20 15:23N 37°46' W 074°16'1517.8
2014-Aug-20 14:33N 38°00' W 074°12'1818.0
2014-Aug-20 13:32N 38°19' W 074°08'1818.2
2014-Aug-20 12:33N 38°36' W 074°02'1818.2
2014-Aug-20 11:33N 38°54' W 073°58'1818.1
2014-Aug-20 10:33N 39°12' W 073°55'1818.2
2014-Aug-20 09:33N 39°30' W 073°54'1818.2
2014-Aug-20 08:33N 39°48' W 073°52'1818.4
2014-Aug-20 07:33N 40°06' W 073°50'1818.4
2014-Aug-20 06:33N 40°25' W 073°49'1312.6
2014-Aug-20 05:33N 40°33' W 074°02'8 7.9
2014-Aug-20 04:33N 40°39' W 074°09'1 1.1
2014-Aug-20 03:33N 40°40' W 074°09'0 0.0
2014-Aug-20 02:33N 40°40' W 074°09'0 0.0
2014-Aug-20 01:33N 40°40' W 074°09'0 0.0
2014-Aug-20 00:33N 40°40' W 074°09'0 0.0
2014-Aug-19 23:33N 40°40' W 074°09'0 0.0
2014-Aug-19 22:33N 40°40' W 074°09'0 0.0
2014-Aug-19 21:33N 40°40' W 074°09'0 0.0
2014-Aug-19 20:33N 40°40' W 074°09'0 0.0
2014-Aug-19 19:33N 40°40' W 074°09'0 0.0
2014-Aug-19 18:33N 40°40' W 074°09'0 0.0
2014-Aug-19 17:33N 40°40' W 074°09'0 0.0
2014-Aug-19 16:33N 40°40' W 074°09'0 0.0
2014-Aug-19 15:33N 40°40' W 074°09'0 0.0
2014-Aug-19 14:33N 40°40' W 074°09'0 0.0
2014-Aug-19 13:33N 40°40' W 074°09'0 0.0
2014-Aug-19 12:33N 40°40' W 074°09'0 0.0
2014-Aug-19 11:33N 40°40' W 074°09'1 0.9
2014-Aug-19 10:33N 40°39' W 074°09'5 5.2
2014-Aug-19 09:33N 40°37' W 074°03'1413.3
2014-Aug-19 08:32N 40°28' W 073°50'3 3.0
2014-Aug-19 07:31N 40°29' W 073°47'0 0.1
2014-Aug-19 06:31N 40°30' W 073°46'0 0.0
2014-Aug-19 05:31N 40°30' W 073°46'0 0.0
2014-Aug-19 04:31N 40°30' W 073°46'2 2.3
2014-Aug-19 03:27N 40°28' W 073°44'910.1
2014-Aug-19 02:33N 40°28' W 073°33'1211.7
2014-Aug-19 01:30N 40°29' W 073°16'1212.5
2014-Aug-19 00:33N 40°30' W 073°01'1312.9
2014-Aug-18 23:33N 40°30' W 072°44'1312.6
2014-Aug-18 22:34N 40°31' W 072°27'1313.2
2014-Aug-18 21:33N 40°31' W 072°10'1313.4
2014-Aug-18 20:34N 40°31' W 071°52'1413.6
2014-Aug-18 19:33N 40°32' W 071°34'1413.9
2014-Aug-18 18:33N 40°32' W 071°16'1414.1
2014-Aug-18 17:33N 40°33' W 070°58'1514.6
2014-Aug-18 16:33N 40°33' W 070°38'2116.8
2014-Aug-18 15:18N 40°33' W 070°11'7 8.5
2014-Aug-18 14:27N 40°33' W 070°01'1617.2
2014-Aug-18 13:32N 40°34' W 069°41'1717.4
2014-Aug-18 12:34N 40°34' W 069°18'1717.2
2014-Aug-18 11:33N 40°34' W 068°55'1817.0
2014-Aug-18 10:29N 40°35' W 068°31'1617.0
2014-Aug-18 09:32N 40°37' W 068°10'1916.9
2014-Aug-18 08:25N 40°40' W 067°46'  
2014-Aug-14 12:24N 41°15' W 030°46'3318.1
2014-Aug-14 10:33N 41°10' W 030°02'1918.3
2014-Aug-14 09:29N 41°04' W 029°38'2418.3
2014-Aug-14 08:10N 40°56' W 029°07'10118.1
2014-Aug-14 02:33N 40°23' W 027°01'1818.0
2014-Aug-14 01:34N 40°17' W 026°39'4518.2
2014-Aug-13 23:06N 40°02' W 025°43'10918.4
2014-Aug-13 17:10N 39°26' W 023°30'3718.5
2014-Aug-13 15:10N 39°15' W 022°44'1218.0
2014-Aug-13 14:30N 39°10' W 022°30'67818.3
2014-Aug-12 01:33N 35°59' W 008°50'  

Dump ship's entire track history